Sheridan, WY

8:53 AM MDT on August 23, 2014 (GMT -0600)
North Airport Area | Change Station
CLOSE
Current Station
Personal Weather Station
Location: Sheridan, WY
Elevation: 3917 ft
Nearby Weather Stations

Elev 3917 ft 44.78 °N, 106.97 °W | Updated 12 minutes ago

Overcast
Overcast
59.7 °F
Feels Like 59.7 °F
N
2.2
Wind Variable Wind from WNW

Today
High -- | Low -- °F
--% Chance of Precip.
Yesterday
High -- | Low -- °F
Precip. -- in
6:19 AM 8:00 PM
Waning Crescent, 4% visible
Pressure 29.87 in
Visibility 6.0 miles
Clouds Overcast 500 ft
Dew Point 58 °F
Humidity 93%
Rainfall 0.05 in
Snow Depth Not available.
UV 1 out of 12
Pollen 1.60 out of 12
Air Quality Not available.
Flu Activity Not available.
SPECI KSHR 231425Z AUTO 28005KT 6SM BR OVC005 16/14 A2987 RMK AO2 T01560144

More Conditions Fewer Conditions

Pressure 29.87 in
Visibility 6.0 miles
Clouds Overcast 500 ft
Dew Point 58 °F
Humidity 93%
Rainfall 0.05 in
Snow Depth Not available.
UV 1 out of 12
Pollen 1.60 out of 12
Air Quality Not available.
Flu Activity Not available.
SPECI KSHR 231425Z AUTO 28005KT 6SM BR OVC005 16/14 A2987 RMK AO2 T01560144

More Conditions Fewer Conditions

10-Day Weather Forecast

Almanac

Astronomy

Aug. 23, 2014 Rise Set
Actual Time 6:19 AM MDT 8:00 PM MDT
Civil Twilight 5:48 AM MDT 8:31 PM MDT
Nautical Twilight 5:10 AM MDT 9:08 PM MDT
Astronomical Twilight 4:30 AM MDT 9:49 PM MDT
Moon 4:36 AM MDT 6:47 PM MDT
Length of Visible Light 14h 42m
Length of Day
13h 40m
Tomorrow will be 2m 54s shorter.
Waning Crescent, 4% of the Moon is Illuminated
Today
Waning Crescent
Aug 25
New
Sep 2
First Quarter
Sep 8
Full
Sep 15
Last Quarter

Today's Extremes

State Highs State Lows

Community

WunderPhotos

Upload Photos

1,746,477 photos uploaded!

WunderBlogs® & News

By Dr. Jeff Masters
Director of Meteorology, Weather Underground
By Kari Strenfel
Meteorologist, Weather Underground
By Christopher C. Burt
Weather Historian, Weather Underground
August 23, 2014
August 23, 2014
August 23, 2014

Nearby

Snow Depth

Station Depth Elevation
Sucker Creek 0 in 8880 ft
Dome Lake 0 in 8880 ft
Shell Creek 0 in 9580 ft
Hansen Sawmill 0 in 8360 ft
Powder River Pass 0 in 9480 ft

Earthquake Activity

City Distance Mag. Time & Date
No recent earthquake activity has been reported nearby.
Minimum magnitude displayed is 2.5.

Coastal Water Temperatures

Place Temperature
No Stations Reporting

Nearby Weather Stations